KGRK/GRK METAR and TAF weather

Enter ICAO airport designator
Station Type Date Time Source
KGRK METAR 2019/04/22 17:58 UTC NOAA

KGRK 221758Z AUTO 15017KT 10SM BKN220 BKN320 26/15 A3002 RMK AO2 SLP157 T02590151 10259 20170 58003


Station Type Date Time Source
KGRK Decoded METAR 2019/04/22 17:58 UTC NOAA

Fort Hood, Robert Gray AAF Ft Hood, TX, United States (KGRK) 31-04N 097-49W
Apr 22, 2019 - 01:58 PM EDT / 2019.04.22 1758 UTC
Wind: from the SSE (150 degrees) at 20 MPH (17 KT):0
Visibility: 10 mile(s):0
Sky conditions: mostly cloudy
Temperature: 78.6 F (25.9 C)
Dew Point: 59.2 F (15.1 C)
Relative Humidity: 51%
Pressure (altimeter): 30.02 in. Hg (1016 hPa)
Pressure tendency: 0.01 inches (0.3 hPa) lower than three hours ago
ob: KGRK 221758Z AUTO 15017KT 10SM BKN220 BKN320 26/15 A3002 RMK AO2 SLP157 T02590151 10259 20170 58003
cycle: 18

Station Type Date Time Source
KGRK TAF 2019/04/22 17:57 UTC NOAA

TAF KGRK 221745Z 2217/2322 17015G25KT 9999 SCT030 BKN250 510104 QNH2995INS
BECMG 2219/2220 17012G18KT 9999 SCT030 BKN150 510104 QNH2992INS
BECMG 2223/2224 15009KT 9999 BKN025 510103 QNH3001INS
BECMG 2309/2310 13009KT 4800 -SHRA BR BKN025 510013 QNH2995INS
BECMG 2316/2317 13012G20KT 8000 -SHRA VCTS SCT008 BKN025CB QNH2991INS TX27/2221Z TN16/2310Z

Example: see airport list